Time;durP1;ratioP1;P1;durP2;ratioP2;P2;SDS_P1;SDS_P2;PMS_P1;PMS_P2;Temp;Humidity;BMP_temperature;BMP_pressure;BME280_temperature;BME280_humidity;BME280_pressure;Samples;Min_cycle;Max_cycle;Signal;HPM_P1;HPM_P2
2021/11/20 00:02:22;;;;;;;0.30;0.25;;;12.10;99.90;;;;;;5013488;28;20182;-65
2021/11/20 00:04:48;;;;;;;0.40;0.35;;;12.10;99.90;;;;;;4996963;28;20533;-65
2021/11/20 00:07:14;;;;;;;1.63;0.90;;;12.10;99.90;;;;;;5013610;28;20197;-65
2021/11/20 00:09:40;;;;;;;2.35;1.85;;;12.10;99.90;;;;;;5013624;28;20182;-65
2021/11/20 00:12:14;;;;;;;0.60;0.60;;;12.10;99.90;;;;;;5013631;28;20292;-65
2021/11/20 00:14:40;;;;;;;0.32;0.22;;;12.20;99.90;;;;;;5013443;28;20187;-65
2021/11/20 00:17:06;;;;;;;0.45;0.32;;;12.20;99.90;;;;;;5013520;28;20193;-65
2021/11/20 00:19:33;;;;;;;1.70;1.58;;;12.10;99.90;;;;;;5012766;28;20174;-65
2021/11/20 00:22:08;;;;;;;1.00;0.80;;;12.10;99.90;;;;;;5013834;28;20186;-65
2021/11/20 00:24:47;;;;;;;0.60;0.40;;;12.20;99.90;;;;;;5013845;28;20542;-65
2021/11/20 00:27:21;;;;;;;0.65;0.40;;;12.10;99.90;;;;;;4996218;28;20242;-65
2021/11/20 00:29:59;;;;;;;3.10;1.42;;;12.10;99.90;;;;;;5013456;28;20170;-65
2021/11/20 00:32:28;;;;;;;0.20;0.20;;;12.00;99.90;;;;;;5013514;28;20181;-65
2021/11/20 00:34:59;;;;;;;0.30;0.30;;;12.00;99.90;;;;;;5013685;28;20175;-65
2021/11/20 00:37:25;;;;;;;0.77;0.77;;;12.20;99.90;;;;;;5013668;28;20262;-65
2021/11/20 00:39:51;;;;;;;2.20;1.03;;;12.10;99.90;;;;;;5013370;28;20196;-65
2021/11/20 00:42:17;;;;;;;0.30;0.20;;;12.00;99.90;;;;;;5013350;28;20221;-65
2021/11/20 00:44:43;;;;;;;0.30;0.30;;;12.00;99.90;;;;;;5013561;28;20196;-66
2021/11/20 00:47:09;;;;;;;0.80;0.70;;;12.00;99.90;;;;;;4996198;28;20277;-65
2021/11/20 00:49:35;;;;;;;0.30;0.20;;;12.00;99.90;;;;;;5013108;28;20186;-65
2021/11/20 00:52:02;;;;;;;1.23;1.13;;;12.00;99.90;;;;;;5013317;28;20206;-65
2021/11/20 00:54:28;;;;;;;1.77;1.33;;;12.10;99.90;;;;;;5013240;28;20473;-65
2021/11/20 00:56:54;;;;;;;0.60;0.20;;;12.00;99.90;;;;;;5016121;28;20205;-65
2021/11/20 00:59:20;;;;;;;0.67;0.60;;;12.10;99.90;;;;;;5017086;28;20860;-65
2021/11/20 01:01:56;;;;;;;0.40;0.35;;;12.00;99.90;;;;;;5017742;28;20467;-65
2021/11/20 01:04:23;;;;;;;1.15;0.88;;;12.00;99.90;;;;;;5016983;28;20193;-66
2021/11/20 01:06:50;;;;;;;4.10;0.98;;;12.00;99.90;;;;;;4999718;28;20269;-66
2021/11/20 01:09:19;;;;;;;0.50;0.50;;;11.90;99.90;;;;;;5016603;28;20190;-65
2021/11/20 01:11:53;;;;;;;0.93;0.75;;;11.90;99.90;;;;;;5017141;28;20268;-65
2021/11/20 01:14:21;;;;;;;2.70;0.60;;;12.00;99.90;;;;;;5017024;28;20182;-65
2021/11/20 01:16:49;;;;;;;1.33;1.23;;;12.00;99.90;;;;;;5016778;28;20194;-66
2021/11/20 01:19:15;;;;;;;4.63;1.90;;;12.10;99.90;;;;;;5016738;28;20178;-63
2021/11/20 01:21:42;;;;;;;0.20;0.20;;;12.00;99.90;;;;;;5016838;28;20256;-63
2021/11/20 01:24:09;;;;;;;0.20;0.10;;;12.00;99.90;;;;;;5016615;28;20193;-63
2021/11/20 01:26:36;;;;;;;0.60;0.60;;;12.00;99.90;;;;;;5016699;28;20186;-64
2021/11/20 01:29:03;;;;;;;14.05;2.10;;;12.00;99.90;;;;;;5016421;28;20190;-63
2021/11/20 01:31:31;;;;;;;1.30;1.20;;;12.00;99.90;;;;;;5016658;28;20223;-64
2021/11/20 01:33:56;;;;;;;2.78;1.95;;;12.00;99.90;;;;;;5016462;28;20703;-63
2021/11/20 01:36:30;;;;;;;3.90;0.87;;;12.00;99.90;;;;;;4999228;28;20265;-63
2021/11/20 01:38:59;;;;;;;0.30;0.30;;;11.90;99.90;;;;;;5016219;28;20184;-63
2021/11/20 01:41:27;;;;;;;0.20;0.10;;;11.90;99.90;;;;;;5016376;28;20257;-63
2021/11/20 01:43:56;;;;;;;0.60;0.60;;;12.10;99.90;;;;;;4999064;28;20182;-63
2021/11/20 01:46:26;;;;;;;1.65;0.88;;;12.00;99.90;;;;;;5016974;28;20278;-64
2021/11/20 01:49:24;;;;;;;0.30;0.30;;;12.00;99.90;;;;;;5016112;28;20210;-64
2021/11/20 01:51:53;;;;;;;2.05;0.90;;;12.10;99.90;;;;;;5016306;28;20301;-66
2021/11/20 01:54:33;;;;;;;0.20;0.20;;;12.00;99.90;;;;;;4998892;28;20623;-66
2021/11/20 01:57:12;;;;;;;1.23;0.65;;;12.10;99.90;;;;;;5016043;28;20205;-67
2021/11/20 02:00:06;;;;;;;1.15;0.77;;;12.00;99.90;;;;;;5015774;28;20186;-66
2021/11/20 02:02:37;;;;;;;2.30;1.48;;;12.00;99.90;;;;;;5015632;28;20190;-66
2021/11/20 02:05:23;;;;;;;2.45;1.40;;;11.90;99.90;;;;;;5015988;28;20175;-67
2021/11/20 02:08:01;;;;;;;0.47;0.47;;;11.90;99.90;;;;;;5015212;28;20171;-64
2021/11/20 02:11:08;;;;;;;0.32;0.25;;;12.00;99.90;;;;;;5015875;28;20654;-66
2021/11/20 02:13:35;;;;;;;1.58;1.30;;;12.00;99.90;;;;;;5015938;28;20212;-64
2021/11/20 02:16:09;;;;;;;1.52;0.52;;;11.90;99.90;;;;;;5015830;28;20182;-65
2021/11/20 02:18:40;;;;;;;0.20;0.10;;;11.90;99.90;;;;;;5015757;28;20178;-64
2021/11/20 02:21:39;;;;;;;0.50;0.50;;;11.90;99.90;;;;;;5015948;28;20186;-63
2021/11/20 02:24:04;;;;;;;1.70;0.75;;;11.90;99.90;;;;;;5015651;28;20189;-66
2021/11/20 02:26:29;;;;;;;0.43;0.43;;;12.00;99.90;;;;;;5015659;28;20177;-66
2021/11/20 02:28:59;;;;;;;5.40;1.40;;;12.00;99.90;;;;;;5015360;28;20491;-63
2021/11/20 02:31:25;;;;;;;3.28;1.27;;;11.90;99.90;;;;;;5015395;28;20236;-64
2021/11/20 02:33:52;;;;;;;0.20;0.20;;;11.80;99.90;;;;;;5015427;28;20186;-64
2021/11/20 02:36:20;;;;;;;3.95;1.20;;;11.90;99.90;;;;;;5015835;28;20619;-64
2021/11/20 02:38:56;;;;;;;2.40;1.55;;;11.90;99.90;;;;;;5015052;28;20182;-64
2021/11/20 02:41:21;;;;;;;1.25;1.10;;;11.90;99.90;;;;;;5015404;28;20575;-64
2021/11/20 02:43:50;;;;;;;3.30;1.27;;;11.80;99.90;;;;;;5015469;28;20186;-64
2021/11/20 02:46:19;;;;;;;0.77;0.77;;;11.80;99.90;;;;;;5015363;28;20265;-65
2021/11/20 02:48:45;;;;;;;1.17;1.08;;;11.80;99.90;;;;;;4997687;28;20646;-64
2021/11/20 02:51:17;;;;;;;0.20;0.10;;;11.80;99.90;;;;;;5015068;28;20241;-64
2021/11/20 02:53:54;;;;;;;4.65;1.80;;;12.00;99.90;;;;;;5015070;28;20174;-65
2021/11/20 02:56:22;;;;;;;1.67;0.73;;;11.90;99.90;;;;;;5015443;28;20285;-65
2021/11/20 02:58:49;;;;;;;11.25;2.90;;;12.00;99.90;;;;;;5014643;28;20541;-64
2021/11/20 03:01:19;;;;;;;1.55;1.48;;;11.90;99.90;;;;;;5015149;28;20182;-65
2021/11/20 03:03:45;;;;;;;0.50;0.50;;;11.90;99.90;;;;;;4997636;28;20187;-63
2021/11/20 03:06:10;;;;;;;1.17;0.50;;;11.90;99.90;;;;;;5014990;28;20174;-64
2021/11/20 03:08:36;;;;;;;0.20;0.10;;;11.90;99.90;;;;;;5014651;28;20265;-63
2021/11/20 03:11:02;;;;;;;1.80;0.63;;;12.00;99.90;;;;;;4997523;28;20213;-63
2021/11/20 03:13:29;;;;;;;0.90;0.90;;;12.00;99.90;;;;;;5014915;28;20181;-63
2021/11/20 03:15:54;;;;;;;0.88;0.60;;;12.00;99.90;;;;;;5014786;28;20166;-64
2021/11/20 03:18:20;;;;;;;1.17;0.53;;;12.00;99.90;;;;;;5014392;28;20181;-66
2021/11/20 03:20:46;;;;;;;0.30;0.20;;;12.00;99.90;;;;;;4997350;28;20308;-66
2021/11/20 03:23:21;;;;;;;0.73;0.73;;;12.10;99.90;;;;;;5014755;28;20514;-66
2021/11/20 03:25:47;;;;;;;2.05;1.30;;;12.20;99.90;;;;;;5014742;28;20530;-66
2021/11/20 03:28:13;;;;;;;1.25;1.15;;;12.10;99.90;;;;;;5014674;28;20182;-66
2021/11/20 03:30:40;;;;;;;0.30;0.30;;;12.20;99.90;;;;;;4997344;28;20533;-66
2021/11/20 03:33:06;;;;;;;1.30;0.77;;;12.20;99.90;;;;;;5014650;28;20174;-66
2021/11/20 03:35:32;;;;;;;0.47;0.30;;;12.20;99.90;;;;;;5014670;28;20581;-66
2021/11/20 03:37:58;;;;;;;0.20;0.20;;;12.20;99.90;;;;;;5014445;28;20210;-66
2021/11/20 03:40:24;;;;;;;0.50;0.40;;;12.10;99.90;;;;;;5014448;28;20460;-66
2021/11/20 03:42:49;;;;;;;0.60;0.60;;;12.10;99.90;;;;;;5014370;28;20432;-66
2021/11/20 03:45:17;;;;;;;1.23;0.83;;;12.10;99.90;;;;;;5014108;28;20429;-66
2021/11/20 03:47:43;;;;;;;1.40;1.25;;;12.10;99.90;;;;;;5014345;28;20174;-66
2021/11/20 03:50:11;;;;;;;0.50;0.40;;;12.10;99.90;;;;;;5014034;28;20331;-67
2021/11/20 03:52:37;;;;;;;1.35;0.90;;;12.00;99.90;;;;;;5014281;28;20186;-66
2021/11/20 03:55:06;;;;;;;0.40;0.40;;;12.00;99.90;;;;;;5013928;28;20524;-66
2021/11/20 03:57:31;;;;;;;0.60;0.52;;;12.10;99.90;;;;;;5014049;28;20178;-66
2021/11/20 03:59:57;;;;;;;1.27;0.70;;;12.10;99.90;;;;;;5013753;28;20185;-66
2021/11/20 04:02:23;;;;;;;0.97;0.77;;;12.10;99.90;;;;;;5014294;28;20192;-66
2021/11/20 04:04:48;;;;;;;1.90;1.03;;;12.10;99.90;;;;;;5013890;28;20437;-66
2021/11/20 04:07:14;;;;;;;2.57;2.37;;;12.10;99.90;;;;;;5014012;28;20189;-66
2021/11/20 04:09:40;;;;;;;3.27;1.90;;;12.10;99.90;;;;;;5013583;28;20185;-66
2021/11/20 04:12:07;;;;;;;0.30;0.10;;;12.10;99.90;;;;;;5013790;28;20937;-66
2021/11/20 04:14:33;;;;;;;1.95;0.75;;;12.10;99.90;;;;;;5013738;28;20421;-66
2021/11/20 04:16:58;;;;;;;0.87;0.87;;;12.10;99.90;;;;;;5013936;28;20185;-66
2021/11/20 04:19:24;;;;;;;0.73;0.70;;;12.10;99.90;;;;;;5013525;28;20178;-66
2021/11/20 04:21:52;;;;;;;0.20;0.10;;;12.10;99.90;;;;;;5013935;28;20183;-66
2021/11/20 04:24:18;;;;;;;3.60;1.13;;;12.10;99.90;;;;;;5013877;28;20681;-66
2021/11/20 04:26:44;;;;;;;0.35;0.35;;;12.20;99.90;;;;;;4996541;28;20829;-66
2021/11/20 04:29:09;;;;;;;2.73;1.90;;;12.20;99.90;;;;;;5013552;28;20805;-66
2021/11/20 04:31:35;;;;;;;1.40;0.87;;;12.20;99.90;;;;;;5016019;28;20472;-66
2021/11/20 04:34:02;;;;;;;7.60;2.57;;;12.00;99.90;;;;;;5017892;28;20178;-66
2021/11/20 04:36:29;;;;;;;0.30;0.20;;;12.10;99.90;;;;;;5017687;28;20482;-66
2021/11/20 04:38:54;;;;;;;0.50;0.50;;;12.20;99.90;;;;;;5017618;28;20536;-66
2021/11/20 04:41:20;;;;;;;6.50;2.90;;;12.20;99.90;;;;;;5017747;28;20185;-67
2021/11/20 04:43:50;;;;;;;0.30;0.20;;;12.10;99.90;;;;;;5017715;28;20680;-66
2021/11/20 04:46:17;;;;;;;2.35;2.25;;;12.10;99.90;;;;;;5017544;28;20329;-66
2021/11/20 04:48:43;;;;;;;0.73;0.73;;;12.10;99.90;;;;;;5017671;28;20230;-67
2021/11/20 04:51:10;;;;;;;0.30;0.30;;;12.20;99.90;;;;;;5017893;28;20667;-67
2021/11/20 04:53:38;;;;;;;0.47;0.47;;;12.10;99.90;;;;;;5000564;28;20187;-67
2021/11/20 04:56:05;;;;;;;1.42;0.95;;;12.10;99.90;;;;;;5017588;28;20631;-66
2021/11/20 04:58:31;;;;;;;2.40;1.38;;;12.20;99.90;;;;;;5017379;28;20186;-66
2021/11/20 05:00:58;;;;;;;0.55;0.55;;;12.10;99.90;;;;;;5016649;28;20197;-66
2021/11/20 05:03:24;;;;;;;4.07;1.63;;;12.10;99.90;;;;;;5000149;28;20626;-66
2021/11/20 05:05:52;;;;;;;0.93;0.88;;;12.10;99.90;;;;;;5017550;28;20196;-65
2021/11/20 05:08:20;;;;;;;4.05;1.45;;;12.00;99.90;;;;;;5017130;28;20263;-65
2021/11/20 05:10:47;;;;;;;1.30;1.20;;;12.00;99.90;;;;;;5017022;28;20288;-65
2021/11/20 05:13:13;;;;;;;2.58;0.60;;;12.00;99.90;;;;;;5017400;28;20182;-65
2021/11/20 05:15:41;;;;;;;0.82;0.82;;;12.00;99.90;;;;;;5017298;28;20607;-65
2021/11/20 05:18:07;;;;;;;0.85;0.85;;;12.00;99.90;;;;;;5017103;28;20501;-65
2021/11/20 05:20:33;;;;;;;4.30;0.80;;;12.00;99.90;;;;;;5017309;28;20261;-65
2021/11/20 05:22:58;;;;;;;0.70;0.70;;;12.10;99.90;;;;;;5017358;28;20451;-65
2021/11/20 05:25:24;;;;;;;0.57;0.57;;;12.10;99.90;;;;;;5017056;28;20436;-65
2021/11/20 05:27:53;;;;;;;0.30;0.20;;;12.10;99.90;;;;;;5017356;28;20645;-63
2021/11/20 05:30:26;;;;;;;1.10;0.95;;;12.00;99.90;;;;;;5016912;28;20216;-63
2021/11/20 05:32:52;;;;;;;1.75;1.65;;;12.00;99.90;;;;;;5017046;28;20225;-63
2021/11/20 05:35:19;;;;;;;2.50;1.03;;;12.00;99.90;;;;;;5016725;28;20573;-63
2021/11/20 05:37:45;;;;;;;0.75;0.50;;;12.00;99.90;;;;;;5016569;28;20432;-64
2021/11/20 05:40:14;;;;;;;0.30;0.20;;;12.10;99.90;;;;;;5016590;28;20182;-64
2021/11/20 05:42:42;;;;;;;3.75;1.95;;;12.20;99.90;;;;;;5015446;28;20554;-63
2021/11/20 05:45:08;;;;;;;0.95;0.43;;;12.20;99.90;;;;;;5016419;28;20182;-63
2021/11/20 05:47:34;;;;;;;0.30;0.20;;;12.00;99.90;;;;;;5016424;28;20178;-64
2021/11/20 05:50:00;;;;;;;0.77;0.77;;;12.00;99.90;;;;;;5016121;28;20178;-64
2021/11/20 05:52:25;;;;;;;1.97;1.87;;;11.90;99.90;;;;;;5016167;28;20210;-63
2021/11/20 05:54:51;;;;;;;0.70;0.50;;;11.90;99.90;;;;;;5016188;28;20769;-63
2021/11/20 05:57:19;;;;;;;1.00;0.93;;;11.80;99.90;;;;;;5016651;28;20202;-63
2021/11/20 05:59:44;;;;;;;1.25;1.15;;;11.90;99.90;;;;;;5016365;28;20202;-66
2021/11/20 06:02:10;;;;;;;2.30;1.23;;;11.90;99.90;;;;;;5015566;28;20280;-65
2021/11/20 06:04:36;;;;;;;1.10;0.75;;;11.90;99.90;;;;;;5016036;28;20436;-65
2021/11/20 06:07:03;;;;;;;0.40;0.40;;;11.90;99.90;;;;;;5016074;28;20513;-66
2021/11/20 06:09:29;;;;;;;1.02;0.75;;;11.90;99.90;;;;;;5015881;28;20452;-65
2021/11/20 06:11:55;;;;;;;0.60;0.60;;;11.90;99.90;;;;;;5016106;28;20253;-65
2021/11/20 06:14:20;;;;;;;3.23;2.90;;;11.80;99.90;;;;;;5015985;28;20206;-66
2021/11/20 06:16:46;;;;;;;2.87;0.83;;;11.80;99.90;;;;;;5015896;28;20909;-66
2021/11/20 06:19:12;;;;;;;1.50;1.40;;;11.90;99.90;;;;;;5015667;28;20178;-66
2021/11/20 06:21:38;;;;;;;0.73;0.47;;;11.80;99.90;;;;;;5015686;28;20190;-66
2021/11/20 06:24:04;;;;;;;0.20;0.20;;;11.80;99.90;;;;;;5015926;28;20188;-66
2021/11/20 06:26:30;;;;;;;2.97;2.30;;;11.80;99.90;;;;;;5015768;28;20906;-66
2021/11/20 06:28:56;;;;;;;1.77;1.67;;;11.70;99.90;;;;;;5015474;28;20228;-66
2021/11/20 06:31:22;;;;;;;0.30;0.20;;;11.70;99.90;;;;;;5015327;28;20796;-66
2021/11/20 06:33:49;;;;;;;3.10;1.50;;;11.70;99.90;;;;;;5015446;28;20185;-66
2021/11/20 06:36:15;;;;;;;0.93;0.93;;;11.70;99.90;;;;;;4998452;28;20200;-66
2021/11/20 06:38:40;;;;;;;1.43;1.07;;;11.70;99.90;;;;;;5015295;28;20249;-66
2021/11/20 06:41:09;;;;;;;4.27;3.03;;;11.70;99.90;;;;;;5015445;28;20532;-66
2021/11/20 06:43:35;;;;;;;7.38;2.08;;;11.80;99.90;;;;;;5015676;28;20279;-66
2021/11/20 06:46:05;;;;;;;3.05;1.88;;;11.90;99.90;;;;;;5015544;28;20272;-66
2021/11/20 06:48:31;;;;;;;0.30;0.20;;;11.70;99.90;;;;;;5015389;28;20190;-66
2021/11/20 06:50:58;;;;;;;4.10;2.40;;;11.80;99.90;;;;;;5015533;28;20220;-66
2021/11/20 06:53:26;;;;;;;1.85;1.40;;;11.90;99.90;;;;;;5015507;28;20240;-66
2021/11/20 06:55:52;;;;;;;6.18;2.25;;;11.90;99.90;;;;;;5015647;28;20200;-66
2021/11/20 07:00:51;;;;;;;2.40;2.20;;;11.80;99.90;;;;;;5015451;28;20182;-66
2021/11/20 07:03:32;;;;;;;0.55;0.55;;;11.70;99.90;;;;;;5016983;28;20190;-66
2021/11/20 07:06:14;;;;;;;4.38;2.05;;;11.80;99.90;;;;;;5019693;28;20189;-66
2021/11/20 07:08:41;;;;;;;3.47;2.17;;;11.80;99.90;;;;;;5019400;28;20178;-66
2021/11/20 07:11:06;;;;;;;3.45;1.80;;;11.80;99.90;;;;;;5018803;28;20209;-66
2021/11/20 07:13:32;;;;;;;1.70;1.60;;;11.90;99.90;;;;;;5019474;28;20179;-66
2021/11/20 07:15:59;;;;;;;0.30;0.20;;;12.00;99.90;;;;;;5020697;28;20178;-66
2021/11/20 07:18:25;;;;;;;1.73;1.63;;;12.10;99.90;;;;;;5018969;28;20189;-66
2021/11/20 07:20:51;;;;;;;2.03;1.92;;;11.90;99.90;;;;;;5018350;28;20186;-67
2021/11/20 07:23:17;;;;;;;0.30;0.22;;;12.00;99.90;;;;;;5018322;28;20241;-66
2021/11/20 07:25:44;;;;;;;2.55;2.35;;;11.90;99.90;;;;;;5018026;28;20178;-66
2021/11/20 07:28:11;;;;;;;1.15;1.00;;;11.90;99.90;;;;;;5018083;28;20224;-66
2021/11/20 07:30:38;;;;;;;1.83;0.70;;;11.90;99.90;;;;;;5015584;28;20392;-66
2021/11/20 07:33:05;;;;;;;1.38;1.27;;;11.90;99.90;;;;;;5014782;28;20201;-66
2021/11/20 07:35:35;;;;;;;0.90;0.63;;;11.90;99.90;;;;;;5014688;28;20182;-67
2021/11/20 07:38:04;;;;;;;3.05;2.00;;;11.90;99.90;;;;;;5014326;28;20170;-66
2021/11/20 07:40:32;;;;;;;4.88;1.65;;;11.80;99.90;;;;;;5014526;28;20228;-66
2021/11/20 07:42:58;;;;;;;2.08;1.27;;;11.90;99.90;;;;;;5014384;28;20193;-65
2021/11/20 07:45:23;;;;;;;3.37;1.93;;;12.00;99.90;;;;;;5014396;28;20496;-64
2021/11/20 07:47:49;;;;;;;11.30;3.90;;;12.00;99.90;;;;;;5014343;28;20257;-63
2021/11/20 07:50:16;;;;;;;0.97;0.97;;;11.80;99.90;;;;;;5014007;28;20197;-65
2021/11/20 07:52:43;;;;;;;2.35;2.25;;;11.90;99.90;;;;;;5014097;28;20201;-64
2021/11/20 07:55:11;;;;;;;1.70;1.13;;;11.90;99.90;;;;;;5014284;28;20257;-64
2021/11/20 07:57:38;;;;;;;1.38;1.27;;;11.90;99.90;;;;;;5015008;28;20280;-64
2021/11/20 08:00:11;;;;;;;2.45;2.35;;;12.00;99.90;;;;;;5014610;28;20189;-65
2021/11/20 08:02:37;;;;;;;3.05;2.00;;;12.10;99.90;;;;;;5014707;28;20185;-64
2021/11/20 08:05:03;;;;;;;0.30;0.30;;;12.00;99.90;;;;;;5013557;28;20182;-65
2021/11/20 08:07:29;;;;;;;2.47;2.27;;;12.10;99.90;;;;;;5013932;28;20198;-65
2021/11/20 08:09:58;;;;;;;0.70;0.68;;;12.00;99.90;;;;;;5014163;28;20512;-65
2021/11/20 08:12:24;;;;;;;3.08;2.22;;;12.20;99.90;;;;;;5013895;28;20216;-65
2021/11/20 08:14:49;;;;;;;0.90;0.90;;;12.10;99.90;;;;;;4996686;28;20210;-65
2021/11/20 08:17:15;;;;;;;0.93;0.93;;;12.00;99.90;;;;;;5013769;28;20221;-65
2021/11/20 08:19:41;;;;;;;2.93;2.30;;;12.10;99.90;;;;;;5013617;28;20174;-65
2021/11/20 08:22:07;;;;;;;0.95;0.95;;;12.10;99.90;;;;;;5013857;28;20178;-64
2021/11/20 08:24:33;;;;;;;1.40;1.13;;;12.10;99.90;;;;;;5013763;28;20197;-66
2021/11/20 08:26:58;;;;;;;0.63;0.63;;;12.10;99.90;;;;;;5013849;28;20218;-65
2021/11/20 08:29:29;;;;;;;0.30;0.10;;;12.20;99.90;;;;;;5013573;28;20216;-65
2021/11/20 08:31:56;;;;;;;1.02;1.02;;;12.20;99.90;;;;;;5013442;28;20273;-64
2021/11/20 08:34:22;;;;;;;3.88;2.25;;;12.20;99.90;;;;;;5013797;28;20513;-65
2021/11/20 08:36:48;;;;;;;0.30;0.20;;;12.10;99.90;;;;;;5013777;28;20189;-65
2021/11/20 08:39:16;;;;;;;3.80;2.10;;;12.10;99.90;;;;;;4996099;28;20191;-66
2021/11/20 08:41:44;;;;;;;2.45;2.15;;;12.10;99.90;;;;;;5014279;28;20261;-65
2021/11/20 08:44:09;;;;;;;3.80;1.95;;;12.10;99.90;;;;;;5013471;28;20340;-65
2021/11/20 08:46:36;;;;;;;7.93;3.50;;;12.20;99.90;;;;;;5013616;28;20265;-64
2021/11/20 08:49:02;;;;;;;8.45;2.95;;;12.20;99.90;;;;;;5013371;28;20205;-64
2021/11/20 08:51:29;;;;;;;2.08;1.92;;;12.10;99.90;;;;;;5013880;28;20533;-65
2021/11/20 08:53:56;;;;;;;0.60;0.38;;;12.20;99.90;;;;;;4996585;28;20240;-65
2021/11/20 08:56:22;;;;;;;0.50;0.50;;;12.30;99.90;;;;;;5013360;28;20270;-65
2021/11/20 08:58:49;;;;;;;2.10;1.45;;;12.40;99.90;;;;;;4996026;28;20221;-63
2021/11/20 09:01:24;;;;;;;0.63;0.63;;;12.50;99.90;;;;;;4996302;28;20193;-64
2021/11/20 09:04:09;;;;;;;2.60;1.85;;;12.50;99.90;;;;;;4996215;28;20177;-65
2021/11/20 09:06:59;;;;;;;3.10;1.65;;;12.40;99.90;;;;;;5013654;28;20191;-66
2021/11/20 09:09:40;;;;;;;2.58;1.73;;;12.40;99.90;;;;;;4995949;28;20186;-64
2021/11/20 09:12:19;;;;;;;3.03;2.00;;;12.50;99.90;;;;;;5013329;28;20356;-64
2021/11/20 09:14:53;;;;;;;2.38;2.17;;;12.40;99.90;;;;;;5013185;28;20204;-65
2021/11/20 09:17:21;;;;;;;5.07;3.53;;;12.50;99.90;;;;;;4997698;28;20182;-65
2021/11/20 09:19:47;;;;;;;2.47;1.95;;;12.40;99.90;;;;;;5016749;28;20499;-65
2021/11/20 09:22:14;;;;;;;1.25;1.05;;;12.40;99.90;;;;;;5016959;28;20221;-65
2021/11/20 09:24:43;;;;;;;1.20;1.10;;;12.40;99.90;;;;;;5017006;28;20712;-64
2021/11/20 09:27:10;;;;;;;2.65;1.38;;;12.50;99.90;;;;;;5017152;28;20197;-63
2021/11/20 09:29:36;;;;;;;3.35;2.60;;;12.60;99.90;;;;;;5016741;28;20232;-64
2021/11/20 09:32:03;;;;;;;0.60;0.60;;;12.40;99.90;;;;;;4999318;28;20206;-63
2021/11/20 09:34:28;;;;;;;0.32;0.30;;;12.50;99.90;;;;;;5016942;28;20178;-63
2021/11/20 09:36:57;;;;;;;1.13;1.03;;;12.60;99.90;;;;;;5016723;28;20261;-64
2021/11/20 09:39:26;;;;;;;2.88;2.17;;;12.60;99.90;;;;;;5016529;28;20182;-64
2021/11/20 09:42:00;;;;;;;3.97;3.58;;;12.70;99.90;;;;;;5016657;28;20201;-65
2021/11/20 09:44:26;;;;;;;0.70;0.70;;;12.70;99.90;;;;;;4999012;28;20185;-64
2021/11/20 09:46:58;;;;;;;2.97;1.57;;;12.70;99.90;;;;;;5016710;28;20170;-64
2021/11/20 09:49:33;;;;;;;3.17;2.85;;;12.70;99.90;;;;;;5015901;28;20421;-65
2021/11/20 09:51:59;;;;;;;3.10;2.33;;;12.80;99.90;;;;;;5016280;28;20669;-64
2021/11/20 09:54:28;;;;;;;0.30;0.20;;;12.70;99.90;;;;;;5016208;28;20181;-64
2021/11/20 09:57:00;;;;;;;7.00;2.70;;;12.80;99.90;;;;;;5016238;28;20532;-64
2021/11/20 09:59:28;;;;;;;1.00;0.60;;;12.70;99.90;;;;;;5015811;28;20509;-65
2021/11/20 10:02:13;;;;;;;0.95;0.77;;;12.70;99.90;;;;;;4998764;28;20187;-64
2021/11/20 10:04:51;;;;;;;1.42;0.98;;;12.70;99.90;;;;;;5015797;28;20313;-65
2021/11/20 10:07:28;;;;;;;3.20;1.55;;;12.70;99.90;;;;;;5016131;28;20178;-65
2021/11/20 10:10:01;;;;;;;2.10;1.15;;;12.80;99.90;;;;;;5015901;28;20185;-66
2021/11/20 10:12:41;;;;;;;10.07;3.47;;;12.90;99.90;;;;;;5015926;28;20279;-65
2021/11/20 10:15:29;;;;;;;3.58;3.20;;;13.00;90.70;;;;;;5015824;28;20185;-66
2021/11/20 10:18:13;;;;;;;2.05;1.67;;;13.00;38.30;;;;;;5015634;28;20193;-66
2021/11/20 10:20:46;;;;;;;2.47;2.28;;;12.80;53.50;;;;;;5016153;28;20182;-68
2021/11/20 10:23:38;;;;;;;3.63;1.52;;;12.80;82.60;;;;;;5015686;28;20654;-66
2021/11/20 10:26:13;;;;;;;4.63;1.85;;;12.80;82.20;;;;;;5015688;28;20190;-67
2021/11/20 10:29:00;;;;;;;3.25;1.90;;;13.00;49.50;;;;;;5015191;28;20188;-67
2021/11/20 10:31:49;;;;;;;0.63;0.63;;;12.90;21.00;;;;;;5015739;28;20279;-67
2021/11/20 10:34:25;;;;;;;0.93;0.65;;;12.70;60.40;;;;;;4998124;28;20258;-67
2021/11/20 10:37:08;;;;;;;2.83;2.63;;;12.80;73.80;;;;;;5015438;28;20636;-67
2021/11/20 10:39:34;;;;;;;1.05;0.80;;;12.90;40.50;;;;;;5015428;28;20631;-67
2021/11/20 10:42:14;;;;;;;1.27;0.90;;;12.70;55.80;;;;;;5015473;28;20217;-67
2021/11/20 10:44:40;;;;;;;0.63;0.50;;;12.70;69.00;;;;;;5015320;28;20213;-68
2021/11/20 10:47:12;;;;;;;0.80;0.80;;;12.80;64.70;;;;;;5015408;28;20653;-67
2021/11/20 10:50:08;;;;;;;2.38;2.17;;;12.80;41.00;;;;;;5014954;28;20215;-68
2021/11/20 10:53:18;;;;;;;0.70;0.52;;;12.70;68.80;;;;;;5015131;28;20259;-68
2021/11/20 10:56:17;;;;;;;0.30;0.20;;;12.80;63.40;;;;;;4979361;28;20582;-65
2021/11/20 10:59:27;;;;;;;0.55;0.45;;;12.80;42.00;;;;;;4997815;28;20178;-65
2021/11/20 11:01:59;;;;;;;0.40;0.32;;;12.70;32.00;;;;;;5014993;28;20248;-67
2021/11/20 12:06:10;;;;;;;3.70;1.92;;;12.70;8.10;;;;;;5014450;28;20248;-66
2021/11/20 12:08:47;;;;;;;0.60;0.30;;;12.80;11.50;;;;;;5013783;28;20170;-66
2021/11/20 12:11:27;;;;;;;0.30;0.30;;;12.70;8.40;;;;;;4996370;28;20615;-67
2021/11/20 12:14:06;;;;;;;1.25;1.23;;;12.60;20.20;;;;;;4996692;28;20186;-66
2021/11/20 12:16:59;;;;;;;1.27;1.17;;;12.60;66.40;;;;;;5013539;28;20188;-65
2021/11/20 12:19:49;;;;;;;0.30;0.30;;;12.50;97.50;;;;;;4994982;28;20224;-65
2021/11/20 12:22:45;;;;;;;0.30;0.20;;;12.60;95.90;;;;;;5005107;28;20696;-65
2021/11/20 12:25:45;;;;;;;0.63;0.63;;;12.70;71.20;;;;;;5033505;28;20270;-65
2021/11/20 12:28:25;;;;;;;0.88;0.63;;;12.80;49.70;;;;;;5013967;28;20499;-66
2021/11/20 12:31:11;;;;;;;1.27;0.70;;;12.80;64.80;;;;;;5014333;28;20196;-66
2021/11/20 12:34:03;;;;;;;2.72;2.55;;;12.80;88.40;;;;;;5033522;28;20240;-66
2021/11/20 12:36:52;;;;;;;2.45;1.90;;;12.70;77.40;;;;;;4998653;28;20217;-66
2021/11/20 12:39:43;;;;;;;3.80;2.22;;;12.60;96.30;;;;;;5013403;28;20613;-66
2021/11/20 12:42:36;;;;;;;2.00;1.90;;;12.50;99.90;;;;;;5017205;28;20309;-67
2021/11/20 12:45:33;;;;;;;0.60;0.60;;;12.50;99.90;;;;;;5020275;28;20251;-66
2021/11/20 12:48:17;;;;;;;0.52;0.52;;;12.50;99.90;;;;;;4993737;28;20519;-67
2021/11/20 12:51:29;;;;;;;4.97;2.28;;;12.60;99.90;;;;;;4990397;28;20189;-67
2021/11/20 12:54:00;;;;;;;2.88;2.67;;;12.50;83.80;;;;;;4976645;28;20189;-64
2021/11/20 12:56:31;;;;;;;0.60;0.40;;;12.40;99.90;;;;;;5037150;28;20170;-64
2021/11/20 12:58:57;;;;;;;7.28;3.35;;;12.50;99.90;;;;;;5031770;28;20256;-64
2021/11/20 13:01:37;;;;;;;3.40;3.10;;;12.40;76.20;;;;;;5017502;28;20647;-64
2021/11/20 13:04:25;;;;;;;1.35;1.00;;;12.40;52.70;;;;;;5017588;28;20788;-63
2021/11/20 13:06:55;;;;;;;2.22;1.20;;;12.50;58.20;;;;;;5032468;28;20204;-64
2021/11/20 13:09:58;;;;;;;2.30;2.15;;;12.30;42.30;;;;;;5036895;28;20239;-64
2021/11/20 13:12:40;;;;;;;4.03;3.67;;;12.30;53.40;;;;;;4954871;28;20240;-64
2021/11/20 13:15:21;;;;;;;2.95;2.38;;;12.20;86.60;;;;;;5036867;28;20209;-65
2021/11/20 13:17:49;;;;;;;0.93;0.93;;;12.30;59.00;;;;;;5017486;28;20182;-66
2021/11/20 13:20:24;;;;;;;1.67;0.77;;;12.30;73.40;;;;;;5016750;28;20209;-66
2021/11/20 13:23:16;;;;;;;0.30;0.20;;;12.40;54.50;;;;;;5016917;28;20240;-67
2021/11/20 13:26:01;;;;;;;0.47;0.47;;;12.40;27.50;;;;;;5016754;28;20209;-67
2021/11/20 13:28:35;;;;;;;2.28;1.95;;;12.30;33.70;;;;;;5017000;28;20182;-66
2021/11/20 13:31:03;;;;;;;0.55;0.55;;;12.30;43.20;;;;;;5016715;28;20202;-65
2021/11/20 13:33:30;;;;;;;0.63;0.57;;;12.20;69.80;;;;;;5016970;28;20221;-67
2021/11/20 13:36:06;;;;;;;4.65;3.42;;;12.20;94.60;;;;;;5016549;28;20480;-67
2021/11/20 13:38:32;;;;;;;4.55;2.05;;;12.20;99.80;;;;;;5016316;28;20154;-66
2021/11/20 13:41:00;;;;;;;4.13;3.38;;;12.00;99.90;;;;;;5016723;28;20186;-66
2021/11/20 13:43:33;;;;;;;3.75;2.63;;;12.00;99.90;;;;;;5016943;28;20175;-67
2021/11/20 13:46:01;;;;;;;4.60;4.13;;;12.00;99.90;;;;;;5016913;28;20185;-66
2021/11/20 13:48:29;;;;;;;1.05;1.05;;;11.80;99.90;;;;;;5016422;28;20636;-65
2021/11/20 13:50:56;;;;;;;4.00;3.47;;;11.80;99.90;;;;;;5027208;28;20254;-65
2021/11/20 13:53:32;;;;;;;2.40;0.93;;;11.80;99.90;;;;;;5036220;28;20606;-66
2021/11/20 13:55:58;;;;;;;2.05;1.85;;;12.00;99.90;;;;;;5035791;28;20178;-66
2021/11/20 13:58:29;;;;;;;3.60;3.30;;;11.80;99.90;;;;;;5027120;28;20189;-66
2021/11/20 14:01:01;;;;;;;3.55;3.25;;;11.80;99.90;;;;;;5016247;28;20424;-67
2021/11/20 14:03:27;;;;;;;1.10;1.00;;;11.90;99.90;;;;;;5015012;28;20470;-67
2021/11/20 14:05:53;;;;;;;1.55;0.73;;;11.90;99.90;;;;;;5016012;28;20658;-67
2021/11/20 14:08:19;;;;;;;2.15;1.95;;;11.80;99.90;;;;;;5016198;28;20265;-65
2021/11/20 14:11:00;;;;;;;1.77;0.50;;;11.90;99.90;;;;;;5016418;28;20213;-64
2021/11/20 14:13:35;;;;;;;1.90;1.80;;;11.80;99.90;;;;;;5016454;28;20519;-64